WZZ325 LGAV-ESMS
Flight info
| Callsign | WZZ325 |
|---|---|
| Flight time | 2h 59m |
| Altitude | 36000 |
| Route | ROPOX UM749 SKP UL617 MAKED DCT RAXAD DCT OSVIX DCT PARAK DCT PATAK DCT BILNA DCT SOPAV DCT REGLI L617 KOLOB DCT ROE |
| Aircraft | A320/M-VGDW/C |
Departure
| Time | 2026-04-25 09:05 |
|---|---|
| Airport | Athens Eleftherios Venizelos International Airport (LGAV) |
Arrival
| Time | 2026-04-25 12:04 |
|---|---|
| Airport | Malmö Sturup Airport (ESMS) |
| Time | Latitude | Longitude | Altitude | Speed | Heading |
|---|---|---|---|---|---|
| 2026-04-25 08:47 | 37.93422 | 23.94652 | 321 ft | 0 kts | 305° |
| 2026-04-25 08:57 | 37.93421 | 23.94655 | 321 ft | 2 kts | 305° |
| 2026-04-25 08:58 | 37.93412 | 23.94670 | 321 ft | 2 kts | 305° |
| 2026-04-25 08:58 | 37.93407 | 23.94680 | 321 ft | 2 kts | 306° |
| 2026-04-25 08:58 | 37.93403 | 23.94698 | 321 ft | 2 kts | 260° |
| 2026-04-25 08:58 | 37.93409 | 23.94715 | 321 ft | 1 kts | 224° |
| 2026-04-25 08:59 | 37.93414 | 23.94720 | 321 ft | 1 kts | 213° |
| 2026-04-25 08:59 | 37.93416 | 23.94722 | 321 ft | 0 kts | 216° |
| 2026-04-25 09:01 | 37.93414 | 23.94720 | 321 ft | 0 kts | 216° |
| 2026-04-25 09:01 | 37.93395 | 23.94706 | 321 ft | 3 kts | 185° |
| 2026-04-25 09:01 | 37.93350 | 23.94705 | 321 ft | 9 kts | 182° |
| 2026-04-25 09:02 | 37.93272 | 23.94656 | 321 ft | 12 kts | 217° |
| 2026-04-25 09:02 | 37.93188 | 23.94598 | 321 ft | 12 kts | 189° |
| 2026-04-25 09:02 | 37.93104 | 23.94603 | 321 ft | 10 kts | 145° |
| 2026-04-25 09:02 | 37.93041 | 23.94671 | 321 ft | 12 kts | 166° |
| 2026-04-25 09:03 | 37.92951 | 23.94617 | 321 ft | 17 kts | 217° |
| 2026-04-25 09:03 | 37.92852 | 23.94523 | 321 ft | 18 kts | 217° |
| 2026-04-25 09:03 | 37.92741 | 23.94417 | 321 ft | 19 kts | 217° |
| 2026-04-25 09:03 | 37.92628 | 23.94309 | 321 ft | 18 kts | 215° |
| 2026-04-25 09:04 | 37.92544 | 23.94314 | 321 ft | 12 kts | 134° |
| 2026-04-25 09:04 | 37.92494 | 23.94408 | 321 ft | 12 kts | 105° |
| 2026-04-25 09:04 | 37.92523 | 23.94486 | 321 ft | 8 kts | 38° |
| 2026-04-25 09:04 | 37.92537 | 23.94499 | 321 ft | 5 kts | 37° |
| 2026-04-25 09:05 | 37.92794 | 23.94743 | 321 ft | 88 kts | 37° |
| 2026-04-25 09:05 | 37.93485 | 23.95399 | 360 ft | 153 kts | 36° |
| 2026-04-25 09:05 | 37.94380 | 23.96252 | 1001 ft | 168 kts | 37° |
| 2026-04-25 09:05 | 37.95310 | 23.97152 | 1880 ft | 171 kts | 37° |
| 2026-04-25 09:06 | 37.96218 | 23.98030 | 2840 ft | 166 kts | 35° |
| 2026-04-25 09:06 | 37.97113 | 23.98889 | 3735 ft | 165 kts | 35° |
| 2026-04-25 09:06 | 37.98064 | 23.99802 | 4367 ft | 179 kts | 36° |
| 2026-04-25 09:06 | 37.99098 | 24.00793 | 4898 ft | 199 kts | 36° |
| 2026-04-25 09:07 | 38.00267 | 24.01917 | 5513 ft | 218 kts | 37° |
| 2026-04-25 09:07 | 38.01530 | 24.03130 | 6149 ft | 235 kts | 37° |
| 2026-04-25 09:07 | 38.02858 | 24.04406 | 6936 ft | 244 kts | 37° |
| 2026-04-25 09:07 | 38.04230 | 24.05653 | 7674 ft | 253 kts | 28° |
| 2026-04-25 09:08 | 38.05997 | 24.06222 | 8268 ft | 271 kts | 0° |
| 2026-04-25 09:08 | 38.07920 | 24.05634 | 9077 ft | 282 kts | 342° |
| 2026-04-25 09:08 | 38.09846 | 24.04691 | 9924 ft | 287 kts | 342° |
| 2026-04-25 09:08 | 38.11757 | 24.03766 | 10589 ft | 298 kts | 341° |
| 2026-04-25 09:09 | 38.13790 | 24.02786 | 10967 ft | 318 kts | 341° |
| 2026-04-25 09:09 | 38.15968 | 24.01735 | 11459 ft | 333 kts | 341° |
| 2026-04-25 09:09 | 38.18196 | 24.00657 | 12131 ft | 340 kts | 341° |
| 2026-04-25 09:09 | 38.20503 | 23.99540 | 12872 ft | 344 kts | 341° |
| 2026-04-25 09:10 | 38.22787 | 23.98434 | 13612 ft | 347 kts | 341° |
| 2026-04-25 09:10 | 38.25099 | 23.97314 | 14333 ft | 350 kts | 340° |
| 2026-04-25 09:10 | 38.27399 | 23.96199 | 15019 ft | 353 kts | 340° |
| 2026-04-25 09:10 | 38.29689 | 23.95088 | 15672 ft | 356 kts | 340° |
| 2026-04-25 09:11 | 38.34353 | 23.92826 | 16935 ft | 362 kts | 340° |
| 2026-04-25 09:11 | 38.36683 | 23.91694 | 17540 ft | 365 kts | 340° |
| 2026-04-25 09:11 | 38.39079 | 23.90530 | 18119 ft | 368 kts | 340° |
| 2026-04-25 09:12 | 38.41522 | 23.89342 | 18692 ft | 371 kts | 340° |
| 2026-04-25 09:12 | 38.43930 | 23.88171 | 19219 ft | 375 kts | 340° |
| 2026-04-25 09:12 | 38.46389 | 23.86973 | 19741 ft | 378 kts | 340° |
| 2026-04-25 09:12 | 38.48877 | 23.85761 | 20251 ft | 382 kts | 340° |
| 2026-04-25 09:13 | 38.51384 | 23.84539 | 20758 ft | 385 kts | 340° |
| 2026-04-25 09:13 | 38.53902 | 23.83310 | 21251 ft | 388 kts | 340° |
| 2026-04-25 09:13 | 38.56426 | 23.82077 | 21722 ft | 391 kts | 340° |
| 2026-04-25 09:13 | 38.58993 | 23.80822 | 22134 ft | 396 kts | 341° |
| 2026-04-25 09:14 | 38.61635 | 23.79531 | 22483 ft | 402 kts | 341° |
| 2026-04-25 09:14 | 38.64257 | 23.78248 | 22925 ft | 405 kts | 341° |
| 2026-04-25 09:14 | 38.66936 | 23.76935 | 23393 ft | 407 kts | 341° |
| 2026-04-25 09:14 | 38.69622 | 23.75618 | 23835 ft | 410 kts | 341° |
| 2026-04-25 09:15 | 38.72324 | 23.74293 | 24272 ft | 412 kts | 341° |
| 2026-04-25 09:15 | 38.75028 | 23.72964 | 24720 ft | 413 kts | 341° |
| 2026-04-25 09:15 | 38.77719 | 23.71642 | 25156 ft | 415 kts | 341° |
| 2026-04-25 09:15 | 38.80479 | 23.70284 | 25591 ft | 416 kts | 341° |
| 2026-04-25 09:16 | 38.83195 | 23.68947 | 26004 ft | 418 kts | 342° |
| 2026-04-25 09:16 | 38.85944 | 23.67592 | 26417 ft | 419 kts | 342° |
| 2026-04-25 09:16 | 38.88683 | 23.66242 | 26807 ft | 421 kts | 342° |
| 2026-04-25 09:16 | 38.91400 | 23.64901 | 27188 ft | 422 kts | 342° |
| 2026-04-25 09:17 | 38.96995 | 23.62137 | 27930 ft | 426 kts | 342° |
| 2026-04-25 09:17 | 38.99798 | 23.60750 | 28288 ft | 427 kts | 342° |
| 2026-04-25 09:17 | 39.02627 | 23.59349 | 28637 ft | 429 kts | 342° |
| 2026-04-25 09:18 | 39.05447 | 23.57952 | 28968 ft | 430 kts | 342° |
| 2026-04-25 09:18 | 39.08306 | 23.56534 | 29291 ft | 432 kts | 342° |
| 2026-04-25 09:18 | 39.11147 | 23.55123 | 29610 ft | 433 kts | 342° |
| 2026-04-25 09:18 | 39.14004 | 23.53702 | 29919 ft | 435 kts | 343° |
| 2026-04-25 09:19 | 39.16821 | 23.52300 | 30218 ft | 437 kts | 343° |
| 2026-04-25 09:19 | 39.19677 | 23.50877 | 30504 ft | 438 kts | 343° |
| 2026-04-25 09:19 | 39.22554 | 23.49443 | 30780 ft | 440 kts | 343° |
| 2026-04-25 09:19 | 39.25391 | 23.48028 | 31050 ft | 442 kts | 343° |
| 2026-04-25 09:20 | 39.28289 | 23.46582 | 31311 ft | 444 kts | 343° |
| 2026-04-25 09:20 | 39.31247 | 23.45104 | 31581 ft | 445 kts | 343° |
| 2026-04-25 09:20 | 39.34138 | 23.43658 | 31823 ft | 447 kts | 343° |
| 2026-04-25 09:20 | 39.37060 | 23.42196 | 32062 ft | 448 kts | 343° |
| 2026-04-25 09:21 | 39.39964 | 23.40741 | 32388 ft | 447 kts | 343° |
| 2026-04-25 09:21 | 39.42878 | 23.39280 | 32728 ft | 445 kts | 343° |
| 2026-04-25 09:21 | 39.45799 | 23.37814 | 33047 ft | 444 kts | 343° |
| 2026-04-25 09:21 | 39.48657 | 23.36378 | 33360 ft | 443 kts | 343° |
| 2026-04-25 09:22 | 39.51575 | 23.34912 | 33667 ft | 442 kts | 342° |
| 2026-04-25 09:22 | 39.54469 | 23.33456 | 33930 ft | 442 kts | 342° |
| 2026-04-25 09:22 | 39.57332 | 23.32014 | 34189 ft | 442 kts | 342° |
| 2026-04-25 09:22 | 39.60182 | 23.30578 | 34438 ft | 441 kts | 342° |
| 2026-04-25 09:23 | 39.63042 | 23.29135 | 34668 ft | 441 kts | 342° |
| 2026-04-25 09:23 | 39.65899 | 23.27693 | 34884 ft | 442 kts | 342° |
| 2026-04-25 09:23 | 39.68762 | 23.26246 | 35100 ft | 442 kts | 342° |
| 2026-04-25 09:23 | 39.71612 | 23.24805 | 35315 ft | 442 kts | 342° |
| 2026-04-25 09:24 | 39.74465 | 23.23361 | 35533 ft | 442 kts | 342° |
| 2026-04-25 09:24 | 39.77346 | 23.21901 | 35740 ft | 442 kts | 342° |
| 2026-04-25 09:24 | 39.80246 | 23.20431 | 35950 ft | 442 kts | 342° |
| 2026-04-25 09:24 | 39.83136 | 23.18964 | 36082 ft | 443 kts | 342° |
| 2026-04-25 09:25 | 39.86004 | 23.17507 | 36104 ft | 442 kts | 342° |
| 2026-04-25 09:25 | 39.91740 | 23.14588 | 36105 ft | 441 kts | 342° |
| 2026-04-25 09:26 | 39.97432 | 23.11687 | 36105 ft | 440 kts | 342° |
| 2026-04-25 09:26 | 40.03115 | 23.08785 | 36109 ft | 432 kts | 342° |
| 2026-04-25 09:27 | 40.08664 | 23.05945 | 36108 ft | 424 kts | 342° |
| 2026-04-25 09:27 | 40.14167 | 23.03127 | 36110 ft | 425 kts | 342° |
| 2026-04-25 09:28 | 40.19659 | 23.00309 | 36115 ft | 426 kts | 342° |
| 2026-04-25 09:28 | 40.25177 | 22.97472 | 36123 ft | 426 kts | 342° |
| 2026-04-25 09:29 | 40.30681 | 22.94637 | 36126 ft | 426 kts | 342° |
| 2026-04-25 09:29 | 40.36182 | 22.91799 | 36125 ft | 425 kts | 342° |
| 2026-04-25 09:30 | 40.41638 | 22.88979 | 36124 ft | 425 kts | 342° |
| 2026-04-25 09:30 | 40.47137 | 22.86131 | 36121 ft | 425 kts | 342° |
| 2026-04-25 09:31 | 40.52625 | 22.83285 | 36121 ft | 424 kts | 342° |
| 2026-04-25 09:31 | 40.58084 | 22.80448 | 36122 ft | 424 kts | 342° |
| 2026-04-25 09:32 | 40.63556 | 22.77600 | 36123 ft | 424 kts | 342° |
| 2026-04-25 09:32 | 40.69039 | 22.74741 | 36130 ft | 423 kts | 342° |
| 2026-04-25 09:33 | 40.74491 | 22.71892 | 36138 ft | 423 kts | 342° |
| 2026-04-25 09:33 | 40.79959 | 22.69031 | 36146 ft | 423 kts | 342° |
| 2026-04-25 09:34 | 40.85448 | 22.66154 | 36150 ft | 423 kts | 342° |
| 2026-04-25 09:34 | 40.90883 | 22.63299 | 36153 ft | 422 kts | 342° |
| 2026-04-25 09:35 | 40.96344 | 22.60426 | 36153 ft | 422 kts | 342° |
| 2026-04-25 09:35 | 41.01813 | 22.57544 | 36150 ft | 421 kts | 342° |
| 2026-04-25 09:36 | 41.07243 | 22.54677 | 36149 ft | 421 kts | 342° |
| 2026-04-25 09:36 | 41.12735 | 22.51901 | 36150 ft | 419 kts | 347° |
| 2026-04-25 09:37 | 41.18439 | 22.50403 | 36152 ft | 416 kts | 353° |
| 2026-04-25 09:37 | 41.24125 | 22.49105 | 36159 ft | 416 kts | 353° |
| 2026-04-25 09:38 | 41.29822 | 22.47799 | 36162 ft | 415 kts | 353° |
| 2026-04-25 09:38 | 41.35499 | 22.46496 | 36157 ft | 415 kts | 353° |
| 2026-04-25 09:39 | 41.41214 | 22.45183 | 36150 ft | 414 kts | 353° |
| 2026-04-25 09:39 | 41.46883 | 22.43877 | 36147 ft | 414 kts | 353° |
| 2026-04-25 09:40 | 41.55389 | 22.41915 | 36143 ft | 413 kts | 353° |
| 2026-04-25 09:40 | 41.61014 | 22.40614 | 36139 ft | 412 kts | 353° |
| 2026-04-25 09:41 | 41.66650 | 22.39308 | 36139 ft | 412 kts | 353° |
| 2026-04-25 09:41 | 41.72314 | 22.37994 | 36142 ft | 412 kts | 353° |
| 2026-04-25 09:42 | 41.77967 | 22.36680 | 36144 ft | 411 kts | 353° |
| 2026-04-25 09:42 | 41.83595 | 22.35369 | 36145 ft | 411 kts | 353° |
| 2026-04-25 09:43 | 41.89286 | 22.34041 | 36142 ft | 411 kts | 353° |
| 2026-04-25 09:43 | 41.94907 | 22.32727 | 36138 ft | 411 kts | 353° |
| 2026-04-25 09:44 | 42.00534 | 22.31410 | 36138 ft | 411 kts | 353° |
| 2026-04-25 09:44 | 42.06124 | 22.30099 | 36146 ft | 410 kts | 353° |
| 2026-04-25 09:45 | 42.11744 | 22.28778 | 36150 ft | 411 kts | 353° |
| 2026-04-25 09:45 | 42.17413 | 22.27444 | 36148 ft | 411 kts | 353° |
| 2026-04-25 09:46 | 42.23011 | 22.26123 | 36152 ft | 412 kts | 352° |
| 2026-04-25 09:46 | 42.28623 | 22.24797 | 36158 ft | 412 kts | 352° |
| 2026-04-25 09:47 | 42.34193 | 22.22675 | 36149 ft | 421 kts | 343° |
| 2026-04-25 09:47 | 42.39740 | 22.20020 | 36148 ft | 427 kts | 343° |
| 2026-04-25 09:48 | 42.45345 | 22.17333 | 36147 ft | 427 kts | 343° |
| 2026-04-25 09:48 | 42.50905 | 22.14664 | 36146 ft | 425 kts | 343° |
| 2026-04-25 09:49 | 42.56455 | 22.11995 | 36147 ft | 425 kts | 343° |
| 2026-04-25 09:49 | 42.62013 | 22.09316 | 36149 ft | 425 kts | 343° |
| 2026-04-25 09:50 | 42.67539 | 22.06649 | 36151 ft | 424 kts | 343° |
| 2026-04-25 09:50 | 42.73087 | 22.03966 | 36154 ft | 424 kts | 343° |
| 2026-04-25 09:51 | 42.78629 | 22.01280 | 36151 ft | 423 kts | 342° |
| 2026-04-25 09:51 | 42.84166 | 21.98591 | 36149 ft | 423 kts | 342° |
| 2026-04-25 09:52 | 42.89688 | 21.95905 | 36151 ft | 423 kts | 342° |
| 2026-04-25 09:52 | 42.95206 | 21.93216 | 36157 ft | 423 kts | 342° |
| 2026-04-25 09:53 | 43.00740 | 21.90514 | 36159 ft | 422 kts | 342° |
| 2026-04-25 09:53 | 43.06247 | 21.87820 | 36162 ft | 422 kts | 342° |
| 2026-04-25 09:54 | 43.11777 | 21.85109 | 36161 ft | 422 kts | 342° |
| 2026-04-25 09:54 | 43.17266 | 21.82414 | 36158 ft | 422 kts | 342° |
| 2026-04-25 09:55 | 43.22785 | 21.79698 | 36156 ft | 422 kts | 342° |
| 2026-04-25 09:55 | 43.28268 | 21.76995 | 36160 ft | 421 kts | 342° |
| 2026-04-25 09:56 | 43.33735 | 21.74294 | 36158 ft | 420 kts | 342° |
| 2026-04-25 09:56 | 43.39251 | 21.71564 | 36152 ft | 420 kts | 341° |
| 2026-04-25 09:57 | 43.44687 | 21.68869 | 36147 ft | 419 kts | 341° |
| 2026-04-25 09:57 | 43.50185 | 21.66138 | 36146 ft | 418 kts | 341° |
| 2026-04-25 09:58 | 43.55658 | 21.63414 | 36143 ft | 418 kts | 341° |
| 2026-04-25 09:58 | 43.61141 | 21.60679 | 36138 ft | 417 kts | 341° |
| 2026-04-25 09:59 | 43.66586 | 21.57958 | 36134 ft | 417 kts | 341° |
| 2026-04-25 09:59 | 43.72017 | 21.55239 | 36131 ft | 417 kts | 341° |
| 2026-04-25 10:00 | 43.77439 | 21.52519 | 36133 ft | 417 kts | 341° |
| 2026-04-25 10:00 | 43.82864 | 21.49793 | 36136 ft | 417 kts | 341° |
| 2026-04-25 10:01 | 43.88318 | 21.47047 | 36140 ft | 417 kts | 341° |
| 2026-04-25 10:01 | 43.93748 | 21.44306 | 36143 ft | 417 kts | 341° |
| 2026-04-25 10:02 | 43.99148 | 21.41577 | 36145 ft | 417 kts | 341° |
| 2026-04-25 10:02 | 44.04609 | 21.38810 | 36153 ft | 416 kts | 341° |
| 2026-04-25 10:03 | 44.10014 | 21.36067 | 36156 ft | 416 kts | 340° |
| 2026-04-25 10:03 | 44.15428 | 21.33314 | 36157 ft | 416 kts | 340° |
| 2026-04-25 10:04 | 44.20853 | 21.30550 | 36156 ft | 416 kts | 340° |
| 2026-04-25 10:04 | 44.26317 | 21.27761 | 36150 ft | 417 kts | 340° |
| 2026-04-25 10:05 | 44.31747 | 21.24978 | 36149 ft | 417 kts | 339° |
| 2026-04-25 10:05 | 44.37080 | 21.21830 | 36145 ft | 417 kts | 336° |
| 2026-04-25 10:06 | 44.42386 | 21.18614 | 36140 ft | 417 kts | 336° |
| 2026-04-25 10:06 | 44.47687 | 21.15394 | 36132 ft | 417 kts | 336° |
| 2026-04-25 10:07 | 44.53009 | 21.12154 | 36129 ft | 417 kts | 336° |
| 2026-04-25 10:07 | 44.58334 | 21.08907 | 36127 ft | 417 kts | 336° |
| 2026-04-25 10:08 | 44.63648 | 21.05659 | 36125 ft | 417 kts | 336° |
| 2026-04-25 10:08 | 44.68938 | 21.02420 | 36123 ft | 417 kts | 336° |
| 2026-04-25 10:09 | 44.74245 | 20.99164 | 36122 ft | 417 kts | 336° |
| 2026-04-25 10:09 | 44.79578 | 20.95884 | 36125 ft | 416 kts | 336° |
| 2026-04-25 10:10 | 44.84870 | 20.92624 | 36127 ft | 416 kts | 336° |
| 2026-04-25 10:10 | 44.90183 | 20.89344 | 36124 ft | 416 kts | 336° |
| 2026-04-25 10:11 | 44.95505 | 20.86052 | 36121 ft | 415 kts | 336° |
| 2026-04-25 10:11 | 45.00833 | 20.82750 | 36119 ft | 415 kts | 336° |
| 2026-04-25 10:12 | 45.06100 | 20.79478 | 36119 ft | 415 kts | 336° |
| 2026-04-25 10:13 | 45.14076 | 20.74512 | 36123 ft | 416 kts | 336° |
| 2026-04-25 10:13 | 45.19350 | 20.71220 | 36133 ft | 416 kts | 335° |
| 2026-04-25 10:14 | 45.24621 | 20.67922 | 36135 ft | 416 kts | 335° |
| 2026-04-25 10:14 | 45.29904 | 20.64610 | 36133 ft | 416 kts | 335° |
| 2026-04-25 10:15 | 45.35176 | 20.61299 | 36128 ft | 415 kts | 335° |
| 2026-04-25 10:15 | 45.40528 | 20.57931 | 36128 ft | 415 kts | 335° |
| 2026-04-25 10:16 | 45.45802 | 20.54604 | 36128 ft | 415 kts | 335° |
| 2026-04-25 10:16 | 45.51122 | 20.51242 | 36115 ft | 415 kts | 335° |
| 2026-04-25 10:17 | 45.56413 | 20.47891 | 36104 ft | 415 kts | 335° |
| 2026-04-25 10:17 | 45.61665 | 20.44558 | 36100 ft | 415 kts | 335° |
| 2026-04-25 10:18 | 45.66965 | 20.41188 | 36104 ft | 414 kts | 335° |
| 2026-04-25 10:18 | 45.72205 | 20.37849 | 36101 ft | 414 kts | 335° |
| 2026-04-25 10:19 | 45.77465 | 20.34489 | 36100 ft | 414 kts | 334° |
| 2026-04-25 10:19 | 45.82840 | 20.31050 | 36101 ft | 415 kts | 334° |
| 2026-04-25 10:20 | 45.88110 | 20.27671 | 36110 ft | 415 kts | 334° |
| 2026-04-25 10:20 | 45.93372 | 20.24290 | 36112 ft | 415 kts | 334° |
| 2026-04-25 10:21 | 45.98648 | 20.20892 | 36111 ft | 414 kts | 334° |
| 2026-04-25 10:21 | 46.03899 | 20.17504 | 36107 ft | 414 kts | 334° |
| 2026-04-25 10:22 | 46.09159 | 20.14102 | 36105 ft | 414 kts | 334° |
| 2026-04-25 10:22 | 46.14431 | 20.10687 | 36100 ft | 414 kts | 334° |
| 2026-04-25 10:23 | 46.19854 | 20.07725 | 36094 ft | 416 kts | 339° |
| 2026-04-25 10:23 | 46.25368 | 20.05031 | 36092 ft | 416 kts | 339° |
| 2026-04-25 10:24 | 46.30820 | 20.02359 | 36094 ft | 416 kts | 339° |
| 2026-04-25 10:24 | 46.36307 | 19.99664 | 36090 ft | 415 kts | 339° |
| 2026-04-25 10:25 | 46.41752 | 19.96986 | 36083 ft | 415 kts | 339° |
| 2026-04-25 10:25 | 46.47230 | 19.94285 | 36080 ft | 415 kts | 339° |
| 2026-04-25 10:26 | 46.52657 | 19.91603 | 36081 ft | 415 kts | 339° |
| 2026-04-25 10:26 | 46.58162 | 19.88878 | 36081 ft | 415 kts | 339° |
| 2026-04-25 10:27 | 46.63620 | 19.86169 | 36081 ft | 414 kts | 338° |
| 2026-04-25 10:27 | 46.69035 | 19.83477 | 36081 ft | 414 kts | 338° |
| 2026-04-25 10:28 | 46.74531 | 19.80739 | 36083 ft | 414 kts | 338° |
| 2026-04-25 10:28 | 46.79989 | 19.78013 | 36084 ft | 413 kts | 338° |
| 2026-04-25 10:29 | 46.85474 | 19.75268 | 36084 ft | 413 kts | 338° |
| 2026-04-25 10:29 | 46.90899 | 19.72547 | 36082 ft | 413 kts | 338° |
| 2026-04-25 10:30 | 46.96285 | 19.69841 | 36079 ft | 412 kts | 338° |
| 2026-04-25 10:30 | 47.01747 | 19.67090 | 36081 ft | 412 kts | 338° |
| 2026-04-25 10:31 | 47.07163 | 19.64356 | 36082 ft | 412 kts | 338° |
| 2026-04-25 10:31 | 47.12618 | 19.61597 | 36083 ft | 412 kts | 338° |
| 2026-04-25 10:32 | 47.18017 | 19.58859 | 36088 ft | 411 kts | 338° |
| 2026-04-25 10:32 | 47.23428 | 19.56111 | 36091 ft | 411 kts | 337° |
| 2026-04-25 10:33 | 47.28835 | 19.53357 | 36091 ft | 411 kts | 337° |
| 2026-04-25 10:33 | 47.34214 | 19.50613 | 36091 ft | 410 kts | 337° |
| 2026-04-25 10:34 | 47.39588 | 19.47865 | 36085 ft | 410 kts | 337° |
| 2026-04-25 10:34 | 47.44955 | 19.45115 | 36085 ft | 410 kts | 337° |
| 2026-04-25 10:35 | 47.50351 | 19.42344 | 36081 ft | 409 kts | 337° |
| 2026-04-25 10:35 | 47.55717 | 19.39582 | 36077 ft | 409 kts | 337° |
| 2026-04-25 10:36 | 47.61123 | 19.36793 | 36079 ft | 409 kts | 337° |
| 2026-04-25 10:36 | 47.66476 | 19.34026 | 36080 ft | 409 kts | 336° |
| 2026-04-25 10:37 | 47.71836 | 19.31250 | 36083 ft | 409 kts | 336° |
| 2026-04-25 10:37 | 47.77185 | 19.28473 | 36087 ft | 409 kts | 336° |
| 2026-04-25 10:38 | 47.82581 | 19.25665 | 36084 ft | 409 kts | 336° |
| 2026-04-25 10:38 | 47.87946 | 19.22868 | 36079 ft | 410 kts | 336° |
| 2026-04-25 10:39 | 47.93354 | 19.20041 | 36073 ft | 410 kts | 336° |
| 2026-04-25 10:39 | 47.98702 | 19.17240 | 36070 ft | 410 kts | 336° |
| 2026-04-25 10:40 | 48.04052 | 19.14432 | 36081 ft | 409 kts | 335° |
| 2026-04-25 10:40 | 48.09409 | 19.11642 | 36087 ft | 409 kts | 336° |
| 2026-04-25 10:41 | 48.14817 | 19.08943 | 36088 ft | 409 kts | 336° |
| 2026-04-25 10:41 | 48.20199 | 19.06243 | 36090 ft | 409 kts | 336° |
| 2026-04-25 10:42 | 48.25578 | 19.03533 | 36091 ft | 409 kts | 336° |
| 2026-04-25 10:42 | 48.30997 | 19.00797 | 36091 ft | 409 kts | 336° |
| 2026-04-25 10:43 | 48.36350 | 18.98087 | 36095 ft | 409 kts | 336° |
| 2026-04-25 10:43 | 48.41752 | 18.95345 | 36101 ft | 409 kts | 336° |
| 2026-04-25 10:44 | 48.47126 | 18.92612 | 36100 ft | 409 kts | 336° |
| 2026-04-25 10:44 | 48.52511 | 18.89867 | 36094 ft | 409 kts | 336° |
| 2026-04-25 10:45 | 48.57906 | 18.87111 | 36088 ft | 410 kts | 336° |
| 2026-04-25 10:45 | 48.63306 | 18.84346 | 36084 ft | 410 kts | 336° |
| 2026-04-25 10:46 | 48.68673 | 18.81592 | 36088 ft | 409 kts | 336° |
| 2026-04-25 10:46 | 48.74041 | 18.78831 | 36089 ft | 409 kts | 336° |
| 2026-04-25 10:47 | 48.79414 | 18.76061 | 36083 ft | 409 kts | 336° |
| 2026-04-25 10:47 | 48.84812 | 18.73272 | 36081 ft | 410 kts | 336° |
| 2026-04-25 10:48 | 48.90189 | 18.70488 | 36081 ft | 410 kts | 336° |
| 2026-04-25 10:48 | 48.95572 | 18.67694 | 36082 ft | 410 kts | 336° |
| 2026-04-25 10:49 | 49.00937 | 18.64903 | 36087 ft | 409 kts | 336° |
| 2026-04-25 10:49 | 49.06318 | 18.62097 | 36087 ft | 409 kts | 336° |
| 2026-04-25 10:50 | 49.11786 | 18.59240 | 36087 ft | 409 kts | 336° |
| 2026-04-25 10:50 | 49.17187 | 18.56410 | 36086 ft | 409 kts | 336° |
| 2026-04-25 10:51 | 49.22574 | 18.53582 | 36088 ft | 409 kts | 336° |
| 2026-04-25 10:51 | 49.27948 | 18.50754 | 36089 ft | 409 kts | 336° |
| 2026-04-25 10:52 | 49.33336 | 18.47912 | 36089 ft | 409 kts | 335° |
| 2026-04-25 10:52 | 49.38711 | 18.45021 | 36090 ft | 407 kts | 333° |
| 2026-04-25 10:53 | 49.43835 | 18.41474 | 36085 ft | 404 kts | 330° |
| 2026-04-25 10:53 | 49.48892 | 18.37791 | 36079 ft | 404 kts | 330° |
| 2026-04-25 10:54 | 49.53996 | 18.34067 | 36079 ft | 404 kts | 329° |
| 2026-04-25 10:54 | 49.59093 | 18.30337 | 36084 ft | 405 kts | 329° |
| 2026-04-25 10:55 | 49.64171 | 18.26613 | 36090 ft | 405 kts | 329° |
| 2026-04-25 10:55 | 49.69249 | 18.22881 | 36093 ft | 405 kts | 329° |
| 2026-04-25 10:56 | 49.74340 | 18.19131 | 36087 ft | 404 kts | 329° |
| 2026-04-25 10:56 | 49.79449 | 18.15357 | 36079 ft | 404 kts | 329° |
| 2026-04-25 10:57 | 49.84494 | 18.11623 | 36069 ft | 404 kts | 329° |
| 2026-04-25 10:57 | 49.89563 | 18.07863 | 36065 ft | 404 kts | 329° |
| 2026-04-25 10:58 | 49.94708 | 18.04318 | 36062 ft | 407 kts | 333° |
| 2026-04-25 10:58 | 50.00025 | 18.01279 | 36062 ft | 407 kts | 334° |
| 2026-04-25 10:59 | 50.05364 | 17.98214 | 36059 ft | 407 kts | 334° |
| 2026-04-25 10:59 | 50.10651 | 17.95163 | 36057 ft | 407 kts | 334° |
| 2026-04-25 11:00 | 50.16022 | 17.92058 | 36058 ft | 407 kts | 334° |
| 2026-04-25 11:00 | 50.21348 | 17.88971 | 36059 ft | 407 kts | 334° |
| 2026-04-25 11:01 | 50.26643 | 17.85896 | 36059 ft | 408 kts | 334° |
| 2026-04-25 11:01 | 50.31926 | 17.82819 | 36058 ft | 408 kts | 334° |
| 2026-04-25 11:02 | 50.37249 | 17.79713 | 36057 ft | 408 kts | 334° |
| 2026-04-25 11:02 | 50.42537 | 17.76623 | 36042 ft | 409 kts | 334° |
| 2026-04-25 11:03 | 50.47868 | 17.73500 | 36038 ft | 409 kts | 334° |
| 2026-04-25 11:03 | 50.53204 | 17.70367 | 36038 ft | 410 kts | 334° |
| 2026-04-25 11:04 | 50.58524 | 17.67235 | 36039 ft | 411 kts | 334° |
| 2026-04-25 11:04 | 50.63869 | 17.64081 | 36042 ft | 411 kts | 334° |
| 2026-04-25 11:05 | 50.69208 | 17.60923 | 36042 ft | 412 kts | 334° |
| 2026-04-25 11:05 | 50.74572 | 17.57743 | 36043 ft | 412 kts | 334° |
| 2026-04-25 11:06 | 50.79930 | 17.54550 | 36044 ft | 413 kts | 334° |
| 2026-04-25 11:06 | 50.85305 | 17.51325 | 36045 ft | 413 kts | 334° |
| 2026-04-25 11:07 | 50.90665 | 17.48117 | 36045 ft | 414 kts | 335° |
| 2026-04-25 11:07 | 50.96050 | 17.44893 | 36044 ft | 414 kts | 335° |
| 2026-04-25 11:08 | 51.01487 | 17.41629 | 36044 ft | 415 kts | 335° |
| 2026-04-25 11:08 | 51.06858 | 17.38397 | 36043 ft | 416 kts | 335° |
| 2026-04-25 11:09 | 51.12282 | 17.35123 | 36044 ft | 416 kts | 335° |
| 2026-04-25 11:09 | 51.17701 | 17.31845 | 36053 ft | 417 kts | 334° |
| 2026-04-25 11:10 | 51.23096 | 17.28570 | 36059 ft | 418 kts | 334° |
| 2026-04-25 11:10 | 51.28541 | 17.25257 | 36062 ft | 418 kts | 334° |
| 2026-04-25 11:11 | 51.33988 | 17.21934 | 36062 ft | 418 kts | 334° |
| 2026-04-25 11:11 | 51.39404 | 17.18622 | 36057 ft | 418 kts | 334° |
| 2026-04-25 11:12 | 51.44824 | 17.15298 | 36053 ft | 418 kts | 334° |
| 2026-04-25 11:12 | 51.50247 | 17.11964 | 36044 ft | 418 kts | 335° |
| 2026-04-25 11:13 | 51.55664 | 17.08625 | 36033 ft | 418 kts | 335° |
| 2026-04-25 11:13 | 51.61058 | 17.05293 | 36023 ft | 418 kts | 335° |
| 2026-04-25 11:14 | 51.66460 | 17.01945 | 36017 ft | 418 kts | 335° |
| 2026-04-25 11:14 | 51.71858 | 16.98592 | 36017 ft | 418 kts | 335° |
| 2026-04-25 11:15 | 51.77267 | 16.95223 | 36022 ft | 418 kts | 335° |
| 2026-04-25 11:15 | 51.82680 | 16.91844 | 36026 ft | 417 kts | 335° |
| 2026-04-25 11:16 | 51.90796 | 16.86761 | 36031 ft | 417 kts | 335° |
| 2026-04-25 11:16 | 51.96205 | 16.83362 | 36031 ft | 418 kts | 335° |
| 2026-04-25 11:17 | 52.01605 | 16.79960 | 36032 ft | 418 kts | 335° |
| 2026-04-25 11:17 | 52.06987 | 16.76561 | 36032 ft | 418 kts | 335° |
| 2026-04-25 11:18 | 52.12485 | 16.73079 | 36037 ft | 419 kts | 335° |
| 2026-04-25 11:18 | 52.18017 | 16.69622 | 36042 ft | 419 kts | 335° |
| 2026-04-25 11:19 | 52.23452 | 16.66238 | 36039 ft | 420 kts | 335° |
| 2026-04-25 11:19 | 52.28878 | 16.62847 | 36036 ft | 420 kts | 335° |
| 2026-04-25 11:20 | 52.34305 | 16.59445 | 36030 ft | 420 kts | 335° |
| 2026-04-25 11:20 | 52.39755 | 16.56019 | 36029 ft | 419 kts | 335° |
| 2026-04-25 11:21 | 52.45184 | 16.52597 | 36028 ft | 419 kts | 335° |
| 2026-04-25 11:21 | 52.50608 | 16.49169 | 36028 ft | 419 kts | 335° |
| 2026-04-25 11:22 | 52.55118 | 16.46311 | 36024 ft | 419 kts | 335° |
| 2026-04-25 11:22 | 52.61494 | 16.42256 | 36019 ft | 418 kts | 335° |
| 2026-04-25 11:23 | 52.66911 | 16.38802 | 36014 ft | 418 kts | 335° |
| 2026-04-25 11:23 | 52.72353 | 16.35323 | 36010 ft | 418 kts | 335° |
| 2026-04-25 11:24 | 52.77745 | 16.31866 | 36008 ft | 418 kts | 334° |
| 2026-04-25 11:24 | 52.83126 | 16.28407 | 36006 ft | 418 kts | 334° |
| 2026-04-25 11:25 | 52.88529 | 16.24925 | 36008 ft | 418 kts | 334° |
| 2026-04-25 11:25 | 52.93973 | 16.21407 | 36008 ft | 417 kts | 334° |
| 2026-04-25 11:26 | 52.99390 | 16.17898 | 36001 ft | 417 kts | 334° |
| 2026-04-25 11:26 | 53.04792 | 16.14389 | 35995 ft | 417 kts | 334° |
| 2026-04-25 11:27 | 53.10175 | 16.10883 | 35993 ft | 417 kts | 334° |
| 2026-04-25 11:27 | 53.14678 | 16.07943 | 35997 ft | 417 kts | 334° |
| 2026-04-25 11:28 | 53.20958 | 16.03832 | 36006 ft | 417 kts | 334° |
| 2026-04-25 11:28 | 53.26344 | 16.00295 | 36010 ft | 417 kts | 334° |
| 2026-04-25 11:29 | 53.31752 | 15.96735 | 36009 ft | 417 kts | 334° |
| 2026-04-25 11:29 | 53.37093 | 15.93209 | 36002 ft | 416 kts | 334° |
| 2026-04-25 11:30 | 53.42488 | 15.89639 | 35991 ft | 416 kts | 334° |
| 2026-04-25 11:30 | 53.47863 | 15.86072 | 35980 ft | 416 kts | 334° |
| 2026-04-25 11:31 | 53.53213 | 15.82513 | 35976 ft | 415 kts | 334° |
| 2026-04-25 11:31 | 53.58550 | 15.78952 | 35978 ft | 415 kts | 334° |
| 2026-04-25 11:32 | 53.63959 | 15.75333 | 35976 ft | 415 kts | 334° |
| 2026-04-25 11:32 | 53.69326 | 15.71733 | 35974 ft | 415 kts | 334° |
| 2026-04-25 11:33 | 53.74683 | 15.68130 | 35973 ft | 415 kts | 334° |
| 2026-04-25 11:33 | 53.80043 | 15.64514 | 35973 ft | 415 kts | 334° |
| 2026-04-25 11:34 | 53.85369 | 15.60911 | 35974 ft | 415 kts | 334° |
| 2026-04-25 11:34 | 53.90752 | 15.57260 | 35976 ft | 415 kts | 334° |
| 2026-04-25 11:35 | 53.96093 | 15.53627 | 35973 ft | 415 kts | 334° |
| 2026-04-25 11:35 | 54.01473 | 15.49958 | 35969 ft | 415 kts | 334° |
| 2026-04-25 11:36 | 54.06835 | 15.46290 | 35974 ft | 414 kts | 333° |
| 2026-04-25 11:36 | 54.09506 | 15.44459 | 35834 ft | 413 kts | 333° |
| 2026-04-25 11:36 | 54.12172 | 15.42630 | 35595 ft | 410 kts | 333° |
| 2026-04-25 11:37 | 54.14831 | 15.40803 | 35071 ft | 408 kts | 333° |
| 2026-04-25 11:37 | 54.17508 | 15.38959 | 34432 ft | 408 kts | 333° |
| 2026-04-25 11:37 | 54.20151 | 15.37137 | 33864 ft | 407 kts | 333° |
| 2026-04-25 11:37 | 54.22752 | 15.35340 | 33340 ft | 404 kts | 333° |
| 2026-04-25 11:38 | 54.25409 | 15.33506 | 32851 ft | 401 kts | 332° |
| 2026-04-25 11:38 | 54.27969 | 15.31735 | 32402 ft | 396 kts | 332° |
| 2026-04-25 11:38 | 54.30544 | 15.29952 | 31934 ft | 393 kts | 332° |
| 2026-04-25 11:38 | 54.33071 | 15.28198 | 31470 ft | 389 kts | 332° |
| 2026-04-25 11:39 | 54.35564 | 15.26463 | 31009 ft | 385 kts | 332° |
| 2026-04-25 11:39 | 54.38060 | 15.24713 | 30549 ft | 381 kts | 332° |
| 2026-04-25 11:39 | 54.40535 | 15.22996 | 30094 ft | 377 kts | 333° |
| 2026-04-25 11:39 | 54.42969 | 15.21353 | 29643 ft | 374 kts | 333° |
| 2026-04-25 11:40 | 54.45381 | 15.19721 | 29186 ft | 370 kts | 333° |
| 2026-04-25 11:40 | 54.47774 | 15.18099 | 28873 ft | 362 kts | 333° |
| 2026-04-25 11:40 | 54.50131 | 15.16500 | 28593 ft | 354 kts | 332° |
| 2026-04-25 11:40 | 54.52419 | 15.14942 | 28205 ft | 349 kts | 333° |
| 2026-04-25 11:41 | 54.54675 | 15.13402 | 27870 ft | 352 kts | 332° |
| 2026-04-25 11:41 | 54.56994 | 15.11812 | 27646 ft | 363 kts | 333° |
| 2026-04-25 11:41 | 54.59383 | 15.10178 | 27422 ft | 368 kts | 333° |
| 2026-04-25 11:41 | 54.61783 | 15.08537 | 27205 ft | 369 kts | 333° |
| 2026-04-25 11:42 | 54.64169 | 15.06904 | 26987 ft | 367 kts | 333° |
| 2026-04-25 11:42 | 54.66505 | 15.05302 | 26765 ft | 365 kts | 333° |
| 2026-04-25 11:42 | 54.68863 | 15.03684 | 26484 ft | 360 kts | 333° |
| 2026-04-25 11:42 | 54.71173 | 15.02096 | 26047 ft | 356 kts | 333° |
| 2026-04-25 11:43 | 54.73506 | 15.00489 | 25576 ft | 352 kts | 332° |
| 2026-04-25 11:43 | 54.75777 | 14.98923 | 25105 ft | 349 kts | 333° |
| 2026-04-25 11:43 | 54.78027 | 14.97370 | 24633 ft | 345 kts | 332° |
| 2026-04-25 11:43 | 54.80248 | 14.95834 | 24171 ft | 342 kts | 333° |
| 2026-04-25 11:44 | 54.82454 | 14.94289 | 23712 ft | 337 kts | 331° |
| 2026-04-25 11:44 | 54.84582 | 14.92626 | 23248 ft | 333 kts | 330° |
| 2026-04-25 11:44 | 54.86678 | 14.90980 | 22795 ft | 330 kts | 330° |
| 2026-04-25 11:44 | 54.88765 | 14.89341 | 22344 ft | 327 kts | 329° |
| 2026-04-25 11:45 | 54.90849 | 14.87702 | 21892 ft | 323 kts | 329° |
| 2026-04-25 11:45 | 54.92885 | 14.86099 | 21447 ft | 320 kts | 329° |
| 2026-04-25 11:45 | 54.94879 | 14.84527 | 21004 ft | 316 kts | 329° |
| 2026-04-25 11:45 | 54.96888 | 14.82942 | 20560 ft | 313 kts | 329° |
| 2026-04-25 11:46 | 54.98858 | 14.81386 | 20123 ft | 310 kts | 329° |
| 2026-04-25 11:46 | 55.00870 | 14.79919 | 19563 ft | 313 kts | 333° |
| 2026-04-25 11:46 | 55.02923 | 14.78602 | 18726 ft | 322 kts | 333° |
| 2026-04-25 11:46 | 55.04876 | 14.76773 | 18000 ft | 315 kts | 316° |
| 2026-04-25 11:47 | 55.06292 | 14.73930 | 17445 ft | 307 kts | 299° |
| 2026-04-25 11:47 | 55.07129 | 14.70524 | 16978 ft | 302 kts | 290° |
| 2026-04-25 11:47 | 55.07849 | 14.67069 | 16534 ft | 298 kts | 290° |
| 2026-04-25 11:47 | 55.08544 | 14.63699 | 16098 ft | 293 kts | 290° |
| 2026-04-25 11:48 | 55.09228 | 14.60357 | 15662 ft | 289 kts | 290° |
| 2026-04-25 11:48 | 55.09891 | 14.57102 | 15242 ft | 285 kts | 290° |
| 2026-04-25 11:48 | 55.10569 | 14.53752 | 14825 ft | 280 kts | 290° |
| 2026-04-25 11:48 | 55.11211 | 14.50566 | 14427 ft | 276 kts | 290° |
| 2026-04-25 11:49 | 55.11845 | 14.47409 | 14008 ft | 273 kts | 290° |
| 2026-04-25 11:49 | 55.12470 | 14.44293 | 13599 ft | 270 kts | 290° |
| 2026-04-25 11:49 | 55.13086 | 14.41205 | 13203 ft | 266 kts | 290° |
| 2026-04-25 11:49 | 55.13687 | 14.38194 | 12818 ft | 263 kts | 291° |
| 2026-04-25 11:50 | 55.14286 | 14.35183 | 12433 ft | 259 kts | 291° |
| 2026-04-25 11:50 | 55.14889 | 14.32145 | 12054 ft | 256 kts | 290° |
| 2026-04-25 11:50 | 55.15468 | 14.29224 | 11681 ft | 253 kts | 290° |
| 2026-04-25 11:50 | 55.16042 | 14.26325 | 11293 ft | 251 kts | 290° |
| 2026-04-25 11:51 | 55.16613 | 14.23432 | 10926 ft | 249 kts | 290° |
| 2026-04-25 11:51 | 55.17180 | 14.20558 | 10556 ft | 246 kts | 290° |
| 2026-04-25 11:51 | 55.17734 | 14.17745 | 10250 ft | 242 kts | 290° |
| 2026-04-25 11:51 | 55.18291 | 14.14911 | 10056 ft | 237 kts | 290° |
| 2026-04-25 11:52 | 55.18815 | 14.12239 | 9918 ft | 229 kts | 290° |
| 2026-04-25 11:52 | 55.19322 | 14.09652 | 9711 ft | 223 kts | 290° |
| 2026-04-25 11:52 | 55.19822 | 14.07098 | 9464 ft | 219 kts | 290° |
| 2026-04-25 11:52 | 55.20315 | 14.04576 | 9186 ft | 218 kts | 290° |
| 2026-04-25 11:53 | 55.20803 | 14.02079 | 8899 ft | 218 kts | 290° |
| 2026-04-25 11:53 | 55.21296 | 13.99554 | 8608 ft | 217 kts | 290° |
| 2026-04-25 11:53 | 55.21773 | 13.97107 | 8327 ft | 217 kts | 290° |
| 2026-04-25 11:53 | 55.22257 | 13.94619 | 8039 ft | 217 kts | 290° |
| 2026-04-25 11:54 | 55.22746 | 13.92099 | 7749 ft | 216 kts | 290° |
| 2026-04-25 11:54 | 55.23228 | 13.89616 | 7461 ft | 216 kts | 290° |
| 2026-04-25 11:54 | 55.24185 | 13.84675 | 6889 ft | 215 kts | 290° |
| 2026-04-25 11:55 | 55.24662 | 13.82204 | 6605 ft | 214 kts | 290° |
| 2026-04-25 11:55 | 55.25140 | 13.79727 | 6320 ft | 214 kts | 290° |
| 2026-04-25 11:55 | 55.25610 | 13.77276 | 6040 ft | 214 kts | 290° |
| 2026-04-25 11:55 | 55.26082 | 13.74760 | 5757 ft | 213 kts | 290° |
| 2026-04-25 11:56 | 55.26555 | 13.72239 | 5484 ft | 213 kts | 290° |
| 2026-04-25 11:56 | 55.27025 | 13.69735 | 5202 ft | 212 kts | 289° |
| 2026-04-25 11:56 | 55.27484 | 13.67277 | 4915 ft | 211 kts | 289° |
| 2026-04-25 11:56 | 55.27945 | 13.64816 | 4671 ft | 210 kts | 289° |
| 2026-04-25 11:57 | 55.28400 | 13.62377 | 4375 ft | 211 kts | 289° |
| 2026-04-25 11:57 | 55.28859 | 13.59916 | 4084 ft | 211 kts | 289° |
| 2026-04-25 11:57 | 55.29313 | 13.57485 | 3806 ft | 210 kts | 289° |
| 2026-04-25 11:57 | 55.29763 | 13.55065 | 3534 ft | 209 kts | 289° |
| 2026-04-25 11:58 | 55.30211 | 13.52653 | 3327 ft | 206 kts | 289° |
| 2026-04-25 11:58 | 55.30648 | 13.50301 | 3190 ft | 199 kts | 289° |
| 2026-04-25 11:58 | 55.31112 | 13.48048 | 3088 ft | 192 kts | 298° |
| 2026-04-25 11:58 | 55.31966 | 13.46322 | 3012 ft | 187 kts | 320° |
| 2026-04-25 11:59 | 55.33007 | 13.45006 | 2946 ft | 180 kts | 319° |
| 2026-04-25 11:59 | 55.34029 | 13.43664 | 2904 ft | 186 kts | 319° |
| 2026-04-25 11:59 | 55.35066 | 13.42313 | 2839 ft | 186 kts | 320° |
| 2026-04-25 12:00 | 55.37584 | 13.40906 | 2565 ft | 195 kts | 346° |
| 2026-04-25 12:00 | 55.38916 | 13.40640 | 2519 ft | 188 kts | 347° |
| 2026-04-25 12:00 | 55.41303 | 13.40171 | 2453 ft | 154 kts | 345° |
| 2026-04-25 12:01 | 55.42326 | 13.39953 | 2267 ft | 140 kts | 344° |
| 2026-04-25 12:01 | 55.43233 | 13.39765 | 2076 ft | 124 kts | 343° |
| 2026-04-25 12:01 | 55.44069 | 13.39580 | 1898 ft | 122 kts | 343° |
| 2026-04-25 12:01 | 55.44916 | 13.39408 | 1740 ft | 123 kts | 344° |
| 2026-04-25 12:02 | 55.46624 | 13.39069 | 1424 ft | 125 kts | 348° |
| 2026-04-25 12:02 | 55.47485 | 13.38873 | 1254 ft | 125 kts | 347° |
| 2026-04-25 12:02 | 55.48352 | 13.38708 | 1086 ft | 124 kts | 346° |
| 2026-04-25 12:03 | 55.49215 | 13.38529 | 923 ft | 125 kts | 348° |
| 2026-04-25 12:03 | 55.50066 | 13.38348 | 745 ft | 123 kts | 348° |
| 2026-04-25 12:03 | 55.50926 | 13.38175 | 580 ft | 124 kts | 347° |
| 2026-04-25 12:03 | 55.51772 | 13.38008 | 419 ft | 123 kts | 346° |
| 2026-04-25 12:04 | 55.52601 | 13.37839 | 248 ft | 115 kts | 345° |
| 2026-04-25 12:04 | 55.53229 | 13.37698 | 238 ft | 60 kts | 352° |
| 2026-04-25 12:04 | 55.53595 | 13.37623 | 235 ft | 45 kts | 353° |
| 2026-04-25 12:04 | 55.53882 | 13.37563 | 229 ft | 37 kts | 353° |
| 2026-04-25 12:05 | 55.54121 | 13.37515 | 224 ft | 27 kts | 351° |
| 2026-04-25 12:05 | 55.54218 | 13.37401 | 222 ft | 11 kts | 274° |
| 2026-04-25 12:05 | 55.54210 | 13.37248 | 223 ft | 13 kts | 264° |
| 2026-04-25 12:05 | 55.54195 | 13.37105 | 225 ft | 7 kts | 248° |
| 2026-04-25 12:06 | 55.54173 | 13.36996 | 226 ft | 16 kts | 261° |
| 2026-04-25 12:06 | 55.54162 | 13.36862 | 226 ft | 4 kts | 243° |
| 2026-04-25 12:06 | 55.54132 | 13.36852 | 227 ft | 5 kts | 177° |
| 2026-04-25 12:06 | 55.54105 | 13.36857 | 227 ft | 3 kts | 174° |
| 2026-04-25 12:07 | 55.54097 | 13.36858 | 227 ft | 0 kts | 174° |